Map

Track Data

SID SEASON NUMBER BASIN SUBBASIN NAME ISO_TIME NATURE LAT LON WMO_WIND WMO_PRES WMO_AGENCY TRACK_TYPE DIST2LAND LANDFALL IFLAG USA_AGENCY USA_ATCF_ID USA_LAT USA_LON USA_RECORD USA_STATUS USA_WIND USA_PRES USA_SSHS USA_R34_NE USA_R34_SE USA_R34_SW USA_R34_NW USA_R50_NE USA_R50_SE USA_R50_SW USA_R50_NW USA_R64_NE USA_R64_SE USA_R64_SW USA_R64_NW USA_POCI USA_ROCI USA_RMW USA_EYE TOKYO_LAT TOKYO_LON TOKYO_GRADE TOKYO_WIND TOKYO_PRES TOKYO_R50_DIR TOKYO_R50_LONG TOKYO_R50_SHORT TOKYO_R30_DIR TOKYO_R30_LONG TOKYO_R30_SHORT TOKYO_LAND CMA_LAT CMA_LON CMA_CAT CMA_WIND CMA_PRES HKO_LAT HKO_LON HKO_CAT HKO_WIND HKO_PRES NEWDELHI_LAT NEWDELHI_LON NEWDELHI_GRADE NEWDELHI_WIND NEWDELHI_PRES NEWDELHI_CI NEWDELHI_DP NEWDELHI_POCI REUNION_LAT REUNION_LON REUNION_TYPE REUNION_WIND REUNION_PRES REUNION_TNUM REUNION_CI REUNION_RMW REUNION_R34_NE REUNION_R34_SE REUNION_R34_SW REUNION_R34_NW REUNION_R50_NE REUNION_R50_SE REUNION_R50_SW REUNION_R50_NW REUNION_R64_NE REUNION_R64_SE REUNION_R64_SW REUNION_R64_NW BOM_LAT BOM_LON BOM_TYPE BOM_WIND BOM_PRES BOM_TNUM BOM_CI BOM_RMW BOM_R34_NE BOM_R34_SE BOM_R34_SW BOM_R34_NW BOM_R50_NE BOM_R50_SE BOM_R50_SW BOM_R50_NW BOM_R64_NE BOM_R64_SE BOM_R64_SW BOM_R64_NW BOM_ROCI BOM_POCI BOM_EYE BOM_POS_METHOD BOM_PRES_METHOD NADI_LAT NADI_LON NADI_CAT NADI_WIND NADI_PRES WELLINGTON_LAT WELLINGTON_LON WELLINGTON_WIND WELLINGTON_PRES DS824_LAT DS824_LON DS824_STAGE DS824_WIND DS824_PRES TD9636_LAT TD9636_LON TD9636_STAGE TD9636_WIND TD9636_PRES TD9635_LAT TD9635_LON TD9635_WIND TD9635_PRES TD9635_ROCI NEUMANN_LAT NEUMANN_LON NEUMANN_CLASS NEUMANN_WIND NEUMANN_PRES MLC_LAT MLC_LON MLC_CLASS MLC_WIND MLC_PRES USA_GUST BOM_GUST BOM_GUST_PER REUNION_GUST REUNION_GUST_PER USA_SEAHGT USA_SEARAD_NE USA_SEARAD_SE USA_SEARAD_SW USA_SEARAD_NW STORM_SPEED STORM_DIR
1965233N14248 1965 75 EP MM DOREEN 1965-08-21 00:00:00 TS 13.7000 -111.700 45 hurdat_epa main 956 956 O________OO___ hurdat_epa EP061965 13.7000 -111.700 TS 45 0 13.7000 -111.700 TC 45 13.7000 -111.700 2 14 292
1965233N14248 1965 75 EP MM DOREEN 1965-08-21 03:00:00 TS 13.9557 -112.352 main 988 988 P________PP___ EP061965 13.9528 -112.342 TS 45 0 13.9528 -112.342 TC 45 13.9675 -112.389 2 14 292
1965233N14248 1965 75 EP MM DOREEN 1965-08-21 06:00:00 TS 14.2034 -113.013 45 hurdat_epa main 1023 1019 O________OP___ hurdat_epa EP061965 14.2000 -113.000 TS 45 0 14.2000 -113.000 TC 45 14.2171 -113.063 2 14 290
1965233N14248 1965 75 EP MM DOREEN 1965-08-21 09:00:00 TS 14.4306 -113.679 main 1027 1021 P________PP___ EP061965 14.4300 -113.672 TS 45 0 14.4300 -113.672 TC 45 14.4332 -113.706 2 13 288
1965233N14248 1965 75 EP MM DOREEN 1965-08-21 12:00:00 TS 14.6000 -114.300 45 hurdat_epa main 1032 1032 O________OO___ hurdat_epa EP061965 14.6000 -114.300 TS 45 0 14.6000 -114.300 TC 45 14.6000 -114.300 2 11 283
1965233N14248 1965 75 EP MM DOREEN 1965-08-21 15:00:00 TS 14.6793 -114.825 main 1047 1047 P________PP___ EP061965 14.6722 -114.823 TS 45 0 14.6722 -114.823 TC 45 14.7075 -114.836 2 10 277
1965233N14248 1965 75 EP MM DOREEN 1965-08-21 18:00:00 TS 14.7132 -115.306 45 hurdat_epa main 1073 1073 O________OP___ hurdat_epa EP061965 14.7000 -115.300 TS 45 0 14.7000 -115.300 TC 45 14.7662 -115.331 2 9 275
1965233N14248 1965 75 EP MM DOREEN 1965-08-21 21:00:00 TS 14.7643 -115.796 main 1092 1092 P________PP___ EP061965 14.7573 -115.792 TS 45 0 14.7573 -115.792 TC 45 14.7919 -115.810 2 10 275
1965233N14248 1965 75 EP MM DOREEN 1965-08-22 00:00:00 TS 14.8000 -116.300 45 hurdat_epa main 1122 1122 O________OO___ hurdat_epa EP061965 14.8000 -116.300 TS 45 0 14.8000 -116.300 TC 45 14.8000 -116.300 2 10 272
1965233N14248 1965 75 EP MM DOREEN 1965-08-22 03:00:00 TS 14.8063 -116.839 main 1154 1154 P________PP___ EP061965 14.8074 -116.843 TS 45 0 14.8074 -116.843 TC 45 14.8018 -116.824 2 11 270
1965233N14248 1965 75 EP MM DOREEN 1965-08-22 06:00:00 TS 14.7984 -117.393 45 hurdat_epa main 1194 1194 O________OP___ hurdat_epa EP061965 14.8000 -117.400 TS 45 0 14.8000 -117.400 TC 45 14.7919 -117.363 2 11 269
1965233N14248 1965 75 EP MM DOREEN 1965-08-22 09:00:00 TS 14.7910 -117.932 main 1229 1229 P________PP___ EP061965 14.7923 -117.935 TS 45 0 14.7923 -117.935 TC 45 14.7860 -117.921 2 11 270
1965233N14248 1965 75 EP MM DOREEN 1965-08-22 12:00:00 TS 14.8000 -118.500 45 hurdat_epa main 1272 1272 O________OO___ hurdat_epa EP061965 14.8000 -118.500 TS 45 0 14.8000 -118.500 TC 45 14.8000 -118.500 2 12 272
1965233N14248 1965 75 EP MM DOREEN 1965-08-22 15:00:00 TS 14.8329 -119.132 main 1317 1317 P________PP___ EP061965 14.8350 -119.143 TS 45 0 14.8350 -119.143 TC 45 14.8245 -119.088 2 12 274
1965233N14248 1965 75 EP MM DOREEN 1965-08-22 18:00:00 TS 14.8948 -119.780 45 hurdat_epa main 1359 1359 O________OP___ hurdat_epa EP061965 14.9000 -119.800 TS 45 0 14.9000 -119.800 TC 45 14.8742 -119.699 2 12 277
1965233N14248 1965 75 EP MM DOREEN 1965-08-22 21:00:00 TS 14.9740 -120.375 main 1388 1388 P________PP___ EP061965 14.9771 -120.385 TS 45 0 14.9771 -120.385 TC 45 14.9618 -120.335 2 12 280
1965233N14248 1965 75 EP MM DOREEN 1965-08-23 00:00:00 TS 15.1000 -121.000 45 hurdat_epa main 1419 1419 O________OO___ hurdat_epa EP061965 15.1000 -121.000 TS 45 0 15.1000 -121.000 TC 45 15.1000 -121.000 2 13 283
1965233N14248 1965 75 EP MM DOREEN 1965-08-23 03:00:00 TS 15.2728 -121.732 main 1451 1451 P________PP___ EP061965 15.2700 -121.735 TS 45 0 15.2700 -121.735 TC 45 15.2837 -121.720 2 15 286
1965233N14248 1965 75 EP MM DOREEN 1965-08-23 06:00:00 TS 15.5036 -122.493 45 hurdat_epa main 1494 1494 O________OP___ hurdat_epa EP061965 15.5000 -122.500 TS 45 0 15.5000 -122.500 TC 45 15.5180 -122.465 2 15 290
1965233N14248 1965 75 EP MM DOREEN 1965-08-23 09:00:00 TS 15.7805 -123.218 main 1524 1524 P________PP___ EP061965 15.7773 -123.223 TS 45 0 15.7773 -123.223 TC 45 15.7931 -123.202 2 15 294
1965233N14248 1965 75 EP MM DOREEN 1965-08-23 12:00:00 TS 16.1000 -123.900 45 hurdat_epa main 1558 1558 O________OO___ hurdat_epa EP061965 16.1000 -123.900 TS 45 0 16.1000 -123.900 TC 45 16.1000 -123.900 2 14 298
1965233N14248 1965 75 EP MM DOREEN 1965-08-23 15:00:00 TS 16.4387 -124.526 main 1586 1586 P________PP___ EP061965 16.4423 -124.523 TS 45 0 16.4423 -124.523 TC 45 16.4245 -124.538 2 14 301
1965233N14248 1965 75 EP MM DOREEN 1965-08-23 18:00:00 TS 16.7953 -125.107 45 hurdat_epa main 1599 1597 O________OP___ hurdat_epa EP061965 16.8000 -125.100 TS 45 0 16.8000 -125.100 TC 45 16.7766 -125.133 2 13 303
1965233N14248 1965 75 EP MM DOREEN 1965-08-23 21:00:00 TS 17.1540 -125.675 main 1606 1604 P________PP___ EP061965 17.1574 -125.673 TS 45 0 17.1574 -125.673 TC 45 17.1404 -125.685 2 13 304
1965233N14248 1965 75 EP MM DOREEN 1965-08-24 00:00:00 TS 17.5000 -126.200 45 hurdat_epa main 1617 1615 O________OO___ hurdat_epa EP061965 17.5000 -126.200 TS 45 0 17.5000 -126.200 TC 45 17.5000 -126.200 2 12 304
1965233N14248 1965 75 EP MM DOREEN 1965-08-24 03:00:00 TS 17.8037 -126.670 main 1629 1622 P________PP___ EP061965 17.7998 -126.665 TS 45 0 17.7998 -126.665 TC 45 17.8192 -126.687 2 11 305
1965233N14248 1965 75 EP MM DOREEN 1965-08-24 06:00:00 TS 18.1068 -127.108 45 hurdat_epa main 1637 1637 O________OP___ hurdat_epa EP061965 18.1000 -127.100 TS 45 0 18.1000 -127.100 TC 45 18.1340 -127.139 2 11 307
1965233N14248 1965 75 EP MM DOREEN 1965-08-24 09:00:00 TS 18.4393 -127.554 main 1653 1646 P________PP___ EP061965 18.4349 -127.550 TS 45 0 18.4349 -127.550 TC 45 18.4568 -127.571 2 11 309
1965233N14248 1965 75 EP MM DOREEN 1965-08-24 12:00:00 TS 18.8000 -128.000 45 hurdat_epa main 1656 1656 O________OO___ hurdat_epa EP061965 18.8000 -128.000 TS 45 0 18.8000 -128.000 TC 45 18.8000 -128.000 2 11 311
1965233N14248 1965 75 EP MM DOREEN 1965-08-24 15:00:00 TS 19.1887 -128.449 main 1662 1662 P________PP___ EP061965 19.1924 -128.450 TS 45 0 19.1924 -128.450 TC 45 19.1740 -128.446 2 12 313
1965233N14248 1965 75 EP MM DOREEN 1965-08-24 18:00:00 TS 19.5939 -128.899 45 hurdat_epa main 1677 1677 O________OP___ hurdat_epa EP061965 19.6000 -128.900 TS 45 0 19.6000 -128.900 TC 45 19.5695 -128.893 2 12 314
1965233N14248 1965 75 EP MM DOREEN 1965-08-24 21:00:00 TS 19.9959 -129.343 main 1687 1687 P________PP___ EP061965 19.9998 -129.343 TS 45 0 19.9998 -129.343 TC 45 19.9802 -129.344 2 12 314
1965233N14248 1965 75 EP MM DOREEN 1965-08-25 00:00:00 TS 20.4000 -129.800 45 hurdat_epa main 1707 1707 O________OO___ hurdat_epa EP061965 20.4000 -129.800 TS 45 0 20.4000 -129.800 TC 45 20.4000 -129.800 2 12 312
1965233N14248 1965 75 EP MM DOREEN 1965-08-25 03:00:00 TS 20.7959 -130.299 main 1729 1729 P________PP___ EP061965 20.7925 -130.300 TS 45 0 20.7925 -130.300 TC 45 20.8098 -130.292 2 12 311
1965233N14248 1965 75 EP MM DOREEN 1965-08-25 06:00:00 TS 21.2056 -130.798 45 hurdat_epa main 1753 1753 O________OP___ hurdat_epa EP061965 21.2000 -130.800 TS 45 0 21.2000 -130.800 TC 45 21.2278 -130.788 2 12 313
1965233N14248 1965 75 EP MM DOREEN 1965-08-25 09:00:00 TS 21.6453 -131.265 main 1776 1754 P________PP___ EP061965 21.6424 -131.265 TS 45 0 21.6424 -131.265 TC 45 21.6568 -131.264 2 12 317
1965233N14248 1965 75 EP MM DOREEN 1965-08-25 12:00:00 TS 22.1000 -131.700 45 hurdat_epa main 1754 1743 O________OO___ hurdat_epa EP061965 22.1000 -131.700 TS 45 0 22.1000 -131.700 TC 45 22.1000 -131.700 2 12 319
1965233N14248 1965 75 EP MM DOREEN 1965-08-25 15:00:00 TS 22.5452 -132.124 main 1743 1725 P________PP___ EP061965 22.5425 -132.130 TS 45 0 22.5425 -132.130 TC 45 22.5562 -132.101 2 12 321
1965233N14248 1965 75 EP MM DOREEN 1965-08-25 18:00:00 TS 23.0054 -132.491 45 hurdat_epa main 1725 1702 O________OP___ hurdat_epa EP061965 23.0000 -132.500 TS 45 0 23.0000 -132.500 TC 45 23.0271 -132.455 2 11 328
1965233N14248 1965 75 EP MM DOREEN 1965-08-25 21:00:00 TS 23.4958 -132.782 main 1702 1675 P________PP___ EP061965 23.4924 -132.788 TS 45 0 23.4924 -132.788 TC 45 23.5095 -132.757 2 11 335
1965233N14248 1965 75 EP MM DOREEN 1965-08-26 00:00:00 TS 24.0000 -133.000 45 hurdat_epa main 1675 1649 O________OO___ hurdat_epa EP061965 24.0000 -133.000 TS 45 0 24.0000 -133.000 TC 45 24.0000 -133.000 2 11 340
1965233N14248 1965 75 EP MM DOREEN 1965-08-26 03:00:00 TS 24.4984 -133.177 main 1649 1617 P________PP___ EP061965 24.4999 -133.173 TS 45 0 24.4999 -133.173 TC 45 24.4924 -133.196 2 10 344
1965233N14248 1965 75 EP MM DOREEN 1965-08-26 06:00:00 TS 24.9984 -133.307 45 hurdat_epa main 1617 1587 O________OP___ hurdat_epa EP061965 25.0000 -133.300 TS 45 0 25.0000 -133.300 TC 45 24.9921 -133.334 2 10 348
1965233N14248 1965 75 EP MM DOREEN 1965-08-26 09:00:00 TS 25.4991 -133.412 main 1587 1558 P________PP___ EP061965 25.5000 -133.408 TS 45 0 25.5000 -133.408 TC 45 25.4957 -133.430 2 10 350
1965233N14248 1965 75 EP MM DOREEN 1965-08-26 12:00:00 TS 26.0000 -133.500 45 hurdat_epa main 1558 1530 O________OO___ hurdat_epa EP061965 26.0000 -133.500 TS 45 0 26.0000 -133.500 TC 45 26.0000 -133.500 2 10 350
1965233N14248 1965 75 EP MM DOREEN 1965-08-26 15:00:00 TS 26.5016 -133.611 main 1530 1504 P________PP___ EP061965 26.5000 -133.615 TS 45 0 26.5000 -133.615 TC 45 26.5080 -133.596 2 10 350
1965233N14248 1965 75 EP MM DOREEN 1965-08-26 18:00:00 TS 27.0030 -133.693 45 hurdat_epa main 1504 1471 O________OP___ hurdat_epa EP061965 27.0000 -133.700 TS 45 0 27.0000 -133.700 TC 45 27.0149 -133.667 2 10 354
1965233N14248 1965 75 EP MM DOREEN 1965-08-26 21:00:00 TS 27.5088 -133.725 main 1471 1440 P________PP___ EP061965 27.5075 -133.730 TS 45 0 27.5075 -133.730 TC 45 27.5143 -133.705 2 10 0
1965233N14248 1965 75 EP MM DOREEN 1965-08-27 00:00:00 TS 28.0000 -133.700 45 hurdat_epa main 1440 1405 O________OO___ hurdat_epa EP061965 28.0000 -133.700 TS 45 0 28.0000 -133.700 TC 45 28.0000 -133.700 2 10 6
1965233N14248 1965 75 EP MM DOREEN 1965-08-27 03:00:00 TS 28.4646 -133.620 main 1397 1361 P________PP___ EP061965 28.4575 -133.615 TS 45 0 28.4575 -133.615 TC 45 28.4928 -133.640 2 9 10
1965233N14248 1965 75 EP MM DOREEN 1965-08-27 06:00:00 TS 28.9135 -133.508 45 hurdat_epa main 1361 1318 O________OP___ hurdat_epa EP061965 28.9000 -133.500 TS 45 0 28.9000 -133.500 TC 45 28.9675 -133.539 2 9 12
1965233N14248 1965 75 EP MM DOREEN 1965-08-27 09:00:00 TS 29.3857 -133.404 main 1318 1283 P________PP___ EP061965 29.3800 -133.400 TS 45 0 29.3800 -133.400 TC 45 29.4085 -133.418 2 9 12
1965233N14248 1965 75 EP MM DOREEN 1965-08-27 12:00:00 TS 29.8000 -133.300 45 hurdat_epa main 1283 1255 O________OO___ hurdat_epa EP061965 29.8000 -133.300 TS 45 0 29.8000 -133.300 TC 45 29.8000 -133.300 2 7 15
1965233N14248 1965 75 EP MM DOREEN 1965-08-27 15:00:00 TS 30.0887 -133.189 main 1255 1234 P________PP___ EP061965 30.0725 -133.192 TS 45 0 30.0725 -133.192 TC 45 30.1537 -133.177 2 6 18
1965233N14248 1965 75 EP MM DOREEN 1965-08-27 18:00:00 TS 30.3310 -133.094 45 hurdat_epa main 1234 1207 O________OP___ hurdat_epa EP061965 30.3000 -133.100 TS 45 0 30.3000 -133.100 TC 45 30.4548 -133.068 2 6 15
1965233N14248 1965 75 EP MM DOREEN 1965-08-27 21:00:00 TS 30.6327 -133.016 main 1207 1188 P________PP___ EP061965 30.6150 -133.020 TS 45 0 30.6150 -133.020 TC 45 30.7036 -132.999 2 6 8
1965233N14248 1965 75 EP MM DOREEN 1965-08-28 00:00:00 TS 30.9000 -133.000 45 hurdat_epa main 1188 1176 O________OO___ hurdat_epa EP061965 30.9000 -133.000 TS 45 0 30.9000 -133.000 TC 45 30.9000 -133.000 2 5 354
1965233N14248 1965 75 EP MM DOREEN 1965-08-28 03:00:00 TS 31.0865 -133.062 main 1184 1178 P________PP___ EP061965 31.0874 -133.055 TS 45 0 31.0874 -133.055 TC 45 31.0828 -133.090 2 4 329
1965233N14248 1965 75 EP MM DOREEN 1965-08-28 06:00:00 TS 31.2025 -133.210 45 hurdat_epa main 1186 1186 O________OP___ hurdat_epa EP061965 31.2000 -133.200 TS 45 0 31.2000 -133.200 TC 45 31.2125 -133.251 2 4 301
1965233N14248 1965 75 EP MM DOREEN 1965-08-28 09:00:00 TS 31.2812 -133.434 main 1196 1196 P________PP___ EP061965 31.2801 -133.427 TS 45 0 31.2801 -133.427 TC 45 31.2859 -133.462 2 4 283
1965233N14248 1965 75 EP MM DOREEN 1965-08-28 12:00:00 TS 31.3000 -133.700 45 hurdat_epa main 1221 1221 O________OO___ hurdat_epa EP061965 31.3000 -133.700 TS 45 0 31.3000 -133.700 TC 45 31.3000 -133.700 2 4 270
1965233N14248 1965 75 EP MM DOREEN 1965-08-28 15:00:00 TS 31.2787 -133.942 main 1237 1237 P________PP___ EP061965 31.2799 -133.950 TS 45 0 31.2799 -133.950 TC 45 31.2735 -133.912 2 4 256
1965233N14248 1965 75 EP MM DOREEN 1965-08-28 18:00:00 TS 31.1979 -134.189 45 hurdat_epa main 1267 1267 O________OP___ hurdat_epa EP061965 31.2000 -134.200 TS 45 0 31.2000 -134.200 TC 45 31.1896 -134.147 2 5 243
1965233N14248 1965 75 EP MM DOREEN 1965-08-28 21:00:00 TS 31.0701 -134.430 main 1290 1290 P________PP___ EP061965 31.0723 -134.435 TS 45 0 31.0723 -134.435 TC 45 31.0609 -134.409 2 5 236
1965233N14248 1965 75 EP MM DOREEN 1965-08-29 00:00:00 TS 30.9000 -134.700 45 hurdat_epa main 1325 1325 O________OO___ hurdat_epa EP061965 30.9000 -134.700 TS 45 0 30.9000 -134.700 TC 45 30.9000 -134.700 2 6 235
1965233N14248 1965 75 EP MM DOREEN 1965-08-29 03:00:00 TS 30.7141 -135.026 main 1361 1361 P________PP___ EP061965 30.7075 -135.035 TS 45 0 30.7075 -135.035 TC 45 30.7402 -134.988 2 7 236
1965233N14248 1965 75 EP MM DOREEN 1965-08-29 06:00:00 TS 30.5103 -135.382 45 hurdat_epa main 1406 1406 O________OP___ hurdat_epa EP061965 30.5000 -135.400 TS 45 0 30.5000 -135.400 TC 45 30.5513 -135.309 2 7 236
1965233N14248 1965 75 EP MM DOREEN 1965-08-29 09:00:00 TS 30.3191 -135.711 main 1442 1442 P________PP___ EP061965 30.3146 -135.719 TS 45 0 30.3146 -135.719 TC 45 30.3368 -135.675 2 7 237
1965233N14248 1965 75 EP MM DOREEN 1965-08-29 12:00:00 TS 30.1000 -136.100 45 hurdat_epa main 1486 1486 O________OO___ hurdat_epa EP061965 30.1000 -136.100 TS 45 0 30.1000 -136.100 TC 45 30.1000 -136.100 2 9 237
1965233N14248 1965 75 EP MM DOREEN 1965-08-29 15:00:00 TS 29.8107 -136.619 main 1545 1545 P________PP___ EP061965 29.8076 -136.620 TS 45 0 29.8076 -136.620 TC 45 29.8231 -136.614 2 11 238
1965233N14248 1965 75 EP MM DOREEN 1965-08-29 18:00:00 TS 29.5058 -137.196 45 hurdat_epa main 1612 1612 O________OP___ hurdat_epa EP061965 29.5000 -137.200 TS 45 0 29.5000 -137.200 TC 45 29.5288 -137.180 2 11 240
1965233N14248 1965 75 EP MM DOREEN 1965-08-29 21:00:00 TS 29.2369 -137.763 main 1679 1679 P________PP___ EP061965 29.2350 -137.765 TS 45 0 29.2350 -137.765 TC 45 29.2449 -137.755 2 11 242
1965233N14248 1965 75 EP MM DOREEN 1965-08-30 00:00:00 TS 29.0000 -138.300 45 hurdat_epa main 1731 1731 O________OO___ hurdat_epa EP061965 29.0000 -138.300 TS 45 0 29.0000 -138.300 TC 45 29.0000 -138.300 2 10 242
1965233N14248 1965 75 EP MM DOREEN 1965-08-30 03:00:00 TS 28.7732 -138.779 main 1783 1783 P________PP___ EP061965 28.7698 -138.772 TS 45 0 28.7698 -138.772 TC 45 28.7870 -138.805 2 9 244
1965233N14248 1965 75 EP MM DOREEN 1965-08-30 06:00:00 TS 28.6045 -139.214 45 hurdat_epa main 1827 1827 O________OP___ hurdat_epa EP061965 28.6000 -139.200 TS 45 0 28.6000 -139.200 TC 45 28.6224 -139.269 2 8 251
1965233N14248 1965 75 EP MM DOREEN 1965-08-30 09:00:00 TS 28.5083 -139.645 main 1839 1804 P________PP___ EP061965 28.5050 -139.637 TS 45 0 28.5050 -139.637 TC 45 28.5216 -139.674 2 7 261
1965233N14248 1965 75 EP CP DOREEN 1965-08-30 12:00:00 TS 28.5000 -140.000 45 hurdat_epa main 1804 1787 O________OO___ hurdat_epa EP061965 28.5000 -140.000 TS 45 0 28.5000 -140.000 TC 45 28.5000 -140.000 2 5 276
1965233N14248 1965 75 EP CP DOREEN 1965-08-30 15:00:00 TS 28.5632 -140.243 main 1793 1776 P________PP___ EP061965 28.5623 -140.245 TS 45 0 28.5623 -140.245 TC 45 28.5667 -140.235 2 4 300
1965233N14248 1965 75 EP CP DOREEN 1965-08-30 18:00:00 TS 28.7010 -140.399 45 hurdat_epa main 1781 1778 O________OP___ hurdat_epa EP061965 28.7000 -140.400 TS 45 0 28.7000 -140.400 TC 45 28.7047 -140.397 2 4 324
1965233N14248 1965 75 EP CP DOREEN 1965-08-30 21:00:00 TS 28.8881 -140.510 main 1784 1782 P________PP___ EP061965 28.8876 -140.510 TS 45 0 28.8876 -140.510 TC 45 28.8904 -140.511 2 4 336
1965233N14248 1965 75 EP CP DOREEN 1965-08-31 00:00:00 TS 29.1000 -140.600 45 hurdat_epa main 1788 O________OO___ hurdat_epa EP061965 29.1000 -140.600 TS 45 0 29.1000 -140.600 TC 45 29.1000 -140.600 2 5 339

About IBTrACS Database

This database is a web-friendly format of International Best Track Archive for Climate Stewardship (IBTrACS), a global best track data archive curated by NOAA dating back to 1842.

Updated: 2021-12-01